Time;durP1;ratioP1;P1;durP2;ratioP2;P2;SDS_P1;SDS_P2;PMS_P1;PMS_P2;Temp;Humidity;BMP_temperature;BMP_pressure;BME280_temperature;BME280_humidity;BME280_pressure;Samples;Min_cycle;Max_cycle;Signal;HPM_P1;HPM_P2
2023/04/27 00:01:38;;;;;;;5.00;2.22;;;19.50;53.20;;;;;;5095272;28;20036;-67
2023/04/27 00:04:04;;;;;;;3.50;2.00;;;19.50;53.20;;;;;;5094458;28;20040;-67
2023/04/27 00:06:31;;;;;;;4.07;2.10;;;19.50;53.90;;;;;;5095292;28;20044;-67
2023/04/27 00:08:57;;;;;;;3.70;1.90;;;19.50;53.20;;;;;;5095403;28;20093;-67
2023/04/27 00:11:22;;;;;;;4.85;2.30;;;19.50;53.20;;;;;;5094769;28;20040;-68
2023/04/27 00:13:48;;;;;;;4.53;2.33;;;19.50;53.20;;;;;;5095289;28;20052;-67
2023/04/27 00:16:13;;;;;;;4.10;2.25;;;19.50;53.10;;;;;;5094513;28;20043;-67
2023/04/27 00:18:39;;;;;;;5.10;2.00;;;19.40;53.20;;;;;;5094540;28;20046;-68
2023/04/27 00:21:05;;;;;;;3.45;2.10;;;19.40;53.10;;;;;;5094958;28;20127;-68
2023/04/27 00:23:30;;;;;;;4.05;1.90;;;19.40;53.10;;;;;;5094392;28;20089;-67
2023/04/27 00:25:56;;;;;;;4.15;1.95;;;19.40;53.00;;;;;;5094955;28;20465;-68
2023/04/27 00:28:21;;;;;;;5.50;2.00;;;19.40;53.00;;;;;;5095029;28;20032;-68
2023/04/27 00:30:47;;;;;;;3.22;1.90;;;19.40;52.90;;;;;;5094375;28;20040;-67
2023/04/27 00:33:13;;;;;;;3.03;1.83;;;19.40;53.00;;;;;;5094560;28;20043;-68
2023/04/27 00:35:39;;;;;;;3.22;2.15;;;19.40;52.90;;;;;;5095034;28;20115;-67
2023/04/27 00:38:04;;;;;;;3.10;1.75;;;19.40;52.90;;;;;;5094155;28;20184;-67
2023/04/27 00:40:30;;;;;;;3.67;1.70;;;19.30;52.80;;;;;;5094955;28;20484;-67
2023/04/27 00:42:55;;;;;;;4.47;1.98;;;19.30;52.80;;;;;;5094555;28;20510;-67
2023/04/27 00:45:21;;;;;;;3.22;1.77;;;19.30;52.80;;;;;;5093644;28;20044;-67
2023/04/27 00:47:46;;;;;;;3.83;2.08;;;19.30;52.80;;;;;;5094403;28;20039;-67
2023/04/27 00:50:12;;;;;;;3.13;1.90;;;19.30;52.80;;;;;;5094465;28;20499;-68
2023/04/27 00:52:38;;;;;;;3.38;1.70;;;19.30;52.80;;;;;;5075818;28;20040;-67
2023/04/27 00:55:04;;;;;;;4.63;1.70;;;19.30;52.70;;;;;;5094373;28;20048;-68
2023/04/27 00:57:30;;;;;;;3.05;1.90;;;19.30;52.70;;;;;;5094695;28;20559;-68
2023/04/27 00:59:56;;;;;;;4.50;2.17;;;19.30;52.80;;;;;;5093521;28;20044;-67
2023/04/27 01:02:22;;;;;;;3.40;1.73;;;19.30;52.70;;;;;;5093062;28;20051;-68
2023/04/27 01:04:49;;;;;;;4.30;1.83;;;19.30;52.70;;;;;;5093430;28;20048;-67
2023/04/27 01:07:15;;;;;;;4.07;1.95;;;19.30;52.70;;;;;;5092123;28;20052;-67
2023/04/27 01:09:40;;;;;;;3.28;1.70;;;19.30;52.70;;;;;;5094214;28;20048;-68
2023/04/27 01:12:06;;;;;;;3.72;2.03;;;19.30;52.60;;;;;;5094117;28;20083;-67
2023/04/27 01:14:32;;;;;;;3.80;1.80;;;19.30;52.70;;;;;;5093310;28;20098;-67
2023/04/27 01:16:57;;;;;;;3.05;1.52;;;19.30;52.60;;;;;;5092558;28;20466;-67
2023/04/27 01:19:23;;;;;;;3.72;1.70;;;19.20;52.60;;;;;;5094165;28;20470;-67
2023/04/27 01:21:48;;;;;;;4.32;1.70;;;19.20;52.50;;;;;;5093427;28;20036;-67
2023/04/27 01:24:14;;;;;;;3.08;1.75;;;19.20;52.50;;;;;;5093683;28;20384;-68
2023/04/27 01:26:39;;;;;;;3.72;1.88;;;19.20;53.20;;;;;;5091844;28;20036;-67
2023/04/27 01:29:05;;;;;;;2.72;1.65;;;19.20;52.50;;;;;;5093625;28;20511;-67
2023/04/27 01:31:31;;;;;;;3.92;1.95;;;19.20;52.60;;;;;;5093541;28;20043;-67
2023/04/27 01:33:56;;;;;;;4.15;1.77;;;19.20;52.50;;;;;;5092804;28;20160;-67
2023/04/27 01:36:22;;;;;;;2.70;1.60;;;19.20;52.50;;;;;;5093859;28;20040;-67
2023/04/27 01:38:47;;;;;;;4.45;2.08;;;19.20;52.50;;;;;;5093401;28;20044;-67
2023/04/27 01:41:13;;;;;;;2.22;1.58;;;19.20;52.50;;;;;;5092819;28;20158;-67
2023/04/27 01:43:38;;;;;;;2.35;1.48;;;19.10;52.40;;;;;;5093609;28;20036;-67
2023/04/27 01:46:11;;;;;;;2.95;1.63;;;19.10;52.40;;;;;;5093023;28;20040;-68
2023/04/27 01:48:37;;;;;;;3.30;1.55;;;19.10;52.30;;;;;;5092839;28;20072;-67
2023/04/27 01:51:02;;;;;;;2.75;1.60;;;19.10;52.40;;;;;;5093433;28;20132;-67
2023/04/27 01:53:28;;;;;;;2.67;1.52;;;19.10;52.40;;;;;;5093475;28;20039;-67
2023/04/27 01:55:54;;;;;;;2.00;1.40;;;19.10;52.30;;;;;;5092795;28;20445;-67
2023/04/27 01:58:20;;;;;;;3.85;1.70;;;19.10;52.30;;;;;;5091860;28;20050;-68
2023/04/27 02:00:45;;;;;;;2.35;1.30;;;19.10;52.30;;;;;;5092576;28;20506;-68
2023/04/27 02:03:11;;;;;;;2.63;1.55;;;19.10;52.30;;;;;;5092235;28;20051;-68
2023/04/27 02:05:36;;;;;;;4.45;1.80;;;19.10;52.20;;;;;;5092933;28;20040;-68
2023/04/27 02:08:02;;;;;;;2.67;1.75;;;19.10;52.20;;;;;;5092925;28;20043;-68
2023/04/27 02:10:27;;;;;;;2.95;1.60;;;19.10;52.20;;;;;;5092698;28;20032;-67
2023/04/27 02:12:53;;;;;;;3.20;1.42;;;19.10;52.20;;;;;;5093317;28;20451;-67
2023/04/27 02:15:18;;;;;;;3.03;1.67;;;19.10;52.20;;;;;;5092747;28;20036;-67
2023/04/27 02:17:44;;;;;;;4.20;1.63;;;19.10;52.30;;;;;;5092496;28;20055;-68
2023/04/27 02:20:11;;;;;;;3.08;1.50;;;19.10;52.40;;;;;;5092836;28;20104;-68
2023/04/27 02:22:40;;;;;;;2.28;1.40;;;19.10;52.30;;;;;;5093253;28;20054;-67
2023/04/27 02:25:07;;;;;;;2.60;1.42;;;19.10;52.30;;;;;;5091773;28;20056;-67
2023/04/27 02:27:32;;;;;;;2.30;1.30;;;19.10;52.30;;;;;;5092902;28;20082;-68
2023/04/27 02:29:58;;;;;;;2.78;1.58;;;19.10;52.30;;;;;;5091923;28;20071;-68
2023/04/27 02:32:23;;;;;;;2.17;1.35;;;19.10;52.40;;;;;;5092968;28;20040;-68
2023/04/27 02:34:49;;;;;;;3.42;1.45;;;19.10;52.40;;;;;;5093195;28;20044;-68
2023/04/27 02:37:15;;;;;;;3.22;1.52;;;19.10;52.30;;;;;;5091873;28;20088;-67
2023/04/27 02:39:40;;;;;;;2.47;1.42;;;19.10;52.20;;;;;;5092939;28;20044;-67
2023/04/27 02:42:06;;;;;;;3.35;1.67;;;19.10;52.20;;;;;;5092670;28;20043;-67
2023/04/27 02:44:31;;;;;;;2.85;1.50;;;19.10;52.10;;;;;;5091839;28;20394;-67
2023/04/27 02:46:57;;;;;;;2.35;1.48;;;19.10;52.00;;;;;;5092512;28;20471;-67
2023/04/27 02:49:22;;;;;;;3.53;1.42;;;19.10;52.10;;;;;;5092799;28;20504;-67
2023/04/27 02:51:48;;;;;;;1.88;1.20;;;19.10;52.20;;;;;;5092126;28;20446;-67
2023/04/27 02:54:13;;;;;;;3.15;1.60;;;19.10;52.20;;;;;;5092263;28;20587;-67
2023/04/27 02:56:39;;;;;;;2.75;1.42;;;19.10;52.10;;;;;;5092467;28;20198;-68
2023/04/27 02:59:04;;;;;;;2.75;1.45;;;19.10;52.10;;;;;;5091644;28;20079;-67
2023/04/27 03:01:30;;;;;;;3.83;1.60;;;19.10;52.10;;;;;;5092628;28;20043;-68
2023/04/27 03:03:56;;;;;;;2.65;1.60;;;19.10;52.10;;;;;;5092506;28;20484;-67
2023/04/27 03:06:21;;;;;;;2.78;1.67;;;19.10;52.10;;;;;;5091977;28;20050;-67
2023/04/27 03:08:47;;;;;;;2.47;1.38;;;19.10;52.10;;;;;;5092789;28;20122;-67
2023/04/27 03:11:12;;;;;;;2.17;1.17;;;19.10;52.10;;;;;;5094601;28;20040;-67
2023/04/27 03:13:40;;;;;;;2.20;1.45;;;19.10;52.10;;;;;;5094530;28;20040;-67
2023/04/27 03:16:07;;;;;;;;;;;19.10;52.10;;;;;;5096359;28;20119;-67
2023/04/27 03:18:33;;;;;;;3.00;1.40;;;19.10;52.10;;;;;;5096684;28;19927;-67
2023/04/27 03:21:08;;;;;;;2.92;1.40;;;19.10;52.10;;;;;;5095294;28;20044;-67
2023/04/27 03:23:33;;;;;;;2.72;1.20;;;19.10;52.10;;;;;;5096190;28;20071;-67
2023/04/27 03:25:59;;;;;;;2.30;1.38;;;19.10;52.10;;;;;;5095911;28;20078;-67
2023/04/27 03:28:25;;;;;;;3.50;1.45;;;19.10;52.10;;;;;;5095203;28;20079;-67
2023/04/27 03:30:50;;;;;;;2.95;1.55;;;19.20;52.20;;;;;;5096086;28;20087;-69
2023/04/27 03:33:17;;;;;;;3.92;1.30;;;19.20;52.20;;;;;;5094310;28;20040;-68
2023/04/27 03:35:42;;;;;;;2.38;1.30;;;19.20;52.10;;;;;;5095895;28;20048;-67
2023/04/27 03:38:08;;;;;;;2.72;1.27;;;19.20;52.10;;;;;;5095842;28;20063;-67
2023/04/27 03:40:34;;;;;;;2.58;1.30;;;19.20;52.10;;;;;;5095107;28;20411;-67
2023/04/27 03:42:59;;;;;;;2.53;1.27;;;19.20;52.00;;;;;;5095855;28;20044;-67
2023/04/27 03:45:25;;;;;;;3.38;1.23;;;19.20;52.00;;;;;;5095871;28;20048;-67
2023/04/27 03:47:50;;;;;;;3.00;1.40;;;19.20;52.00;;;;;;5093811;28;20040;-68
2023/04/27 03:50:16;;;;;;;3.03;1.33;;;19.20;52.00;;;;;;5095331;28;20093;-67
2023/04/27 03:52:42;;;;;;;2.38;1.17;;;19.30;52.00;;;;;;5095752;28;20036;-68
2023/04/27 03:55:07;;;;;;;2.28;1.40;;;19.30;52.00;;;;;;5094837;28;20043;-68
2023/04/27 03:57:33;;;;;;;2.97;1.30;;;19.30;52.00;;;;;;5111631;28;20113;-68
2023/04/27 03:59:59;;;;;;;1.60;0.90;;;19.30;52.00;;;;;;5095178;28;20388;-68
2023/04/27 04:02:24;;;;;;;2.88;1.30;;;19.30;52.00;;;;;;5094108;28;20040;-68
2023/04/27 04:04:50;;;;;;;2.22;1.20;;;19.40;52.00;;;;;;5094801;28;20411;-68
2023/04/27 04:07:15;;;;;;;2.15;1.27;;;19.40;52.00;;;;;;5094837;28;20066;-67
2023/04/27 04:09:42;;;;;;;1.35;1.05;;;19.40;52.00;;;;;;5094251;28;20126;-68
2023/04/27 04:12:07;;;;;;;3.17;1.40;;;19.40;52.00;;;;;;5094773;28;20471;-67
2023/04/27 04:14:33;;;;;;;2.35;1.15;;;19.40;52.00;;;;;;5095307;28;20491;-67
2023/04/27 04:16:58;;;;;;;2.30;1.13;;;19.40;51.90;;;;;;5092811;28;20436;-67
2023/04/27 04:19:24;;;;;;;2.42;1.20;;;19.40;52.00;;;;;;5095292;28;20130;-68
2023/04/27 04:21:50;;;;;;;1.73;1.20;;;19.50;52.00;;;;;;5094678;28;20091;-68
2023/04/27 04:24:15;;;;;;;1.92;1.00;;;19.50;51.90;;;;;;5093871;28;20060;-68
2023/04/27 04:26:41;;;;;;;1.88;1.33;;;19.50;51.90;;;;;;5093662;28;20048;-68
2023/04/27 04:29:07;;;;;;;3.00;1.50;;;19.50;51.90;;;;;;5095129;28;20475;-67
2023/04/27 04:31:33;;;;;;;1.80;0.90;;;19.50;51.80;;;;;;5093296;28;20048;-67
2023/04/27 04:34:00;;;;;;;2.03;1.10;;;19.50;51.80;;;;;;5094481;28;20491;-67
2023/04/27 04:36:26;;;;;;;2.08;1.20;;;19.60;51.90;;;;;;5095022;28;20122;-68
2023/04/27 04:38:53;;;;;;;1.92;1.10;;;19.50;51.80;;;;;;5094126;28;20094;-67
2023/04/27 04:41:18;;;;;;;2.03;1.08;;;19.60;51.80;;;;;;5094843;28;20044;-68
2023/04/27 04:43:44;;;;;;;3.75;1.38;;;19.60;51.80;;;;;;5094266;28;20050;-67
2023/04/27 04:46:10;;;;;;;1.90;1.00;;;19.60;51.80;;;;;;5094423;28;20051;-67
2023/04/27 04:48:35;;;;;;;2.38;1.23;;;19.60;51.70;;;;;;5094516;28;20426;-67
2023/04/27 04:51:03;;;;;;;1.42;1.00;;;19.70;51.80;;;;;;5093825;28;20040;-67
2023/04/27 04:53:28;;;;;;;2.10;1.13;;;19.70;51.80;;;;;;5094811;28;20043;-67
2023/04/27 04:55:54;;;;;;;1.85;0.90;;;19.70;52.50;;;;;;5094386;28;20051;-67
2023/04/27 04:58:20;;;;;;;2.58;1.20;;;19.70;51.80;;;;;;5093943;28;20048;-67
2023/04/27 05:00:45;;;;;;;2.70;1.25;;;19.70;51.80;;;;;;5094441;28;20048;-67
2023/04/27 05:03:11;;;;;;;2.63;1.15;;;19.70;51.70;;;;;;5094209;28;20040;-67
2023/04/27 05:05:36;;;;;;;2.25;1.10;;;19.70;51.70;;;;;;5093845;28;20040;-67
2023/04/27 05:08:02;;;;;;;1.60;1.02;;;19.70;51.70;;;;;;5094205;28;20036;-67
2023/04/27 05:10:28;;;;;;;1.20;1.00;;;19.70;51.80;;;;;;5094367;28;20051;-67
2023/04/27 05:12:53;;;;;;;2.13;0.90;;;19.70;51.80;;;;;;5093831;28;20040;-68
2023/04/27 05:15:19;;;;;;;2.10;1.00;;;19.80;51.90;;;;;;5093913;28;20040;-67
2023/04/27 05:17:45;;;;;;;1.85;1.00;;;19.80;51.90;;;;;;5093919;28;20487;-67
2023/04/27 05:20:10;;;;;;;2.13;1.02;;;19.80;51.90;;;;;;5092855;28;20044;-67
2023/04/27 05:22:36;;;;;;;1.75;1.13;;;19.80;51.90;;;;;;5094210;28;20046;-67
2023/04/27 05:25:03;;;;;;;2.17;1.10;;;19.90;51.90;;;;;;5093397;28;20404;-68
2023/04/27 05:27:28;;;;;;;2.45;1.02;;;19.90;51.90;;;;;;5093327;28;20086;-68
2023/04/27 05:29:54;;;;;;;2.65;1.08;;;19.90;52.00;;;;;;5093816;28;20067;-68
2023/04/27 05:32:20;;;;;;;2.17;1.25;;;19.90;51.90;;;;;;5093816;28;20032;-68
2023/04/27 05:34:45;;;;;;;1.63;1.20;;;19.90;51.90;;;;;;5092933;28;20483;-67
2023/04/27 05:37:12;;;;;;;2.83;1.20;;;20.00;51.90;;;;;;5093375;28;20514;-68
2023/04/27 05:39:38;;;;;;;2.80;1.13;;;20.00;51.90;;;;;;5093585;28;20055;-68
2023/04/27 05:42:03;;;;;;;2.03;0.77;;;20.00;51.90;;;;;;5092711;28;20135;-68
2023/04/27 05:44:29;;;;;;;1.80;1.20;;;20.00;51.90;;;;;;5093570;28;20127;-68
2023/04/27 05:46:55;;;;;;;1.00;0.77;;;20.00;51.90;;;;;;5092445;28;20126;-68
2023/04/27 05:49:21;;;;;;;1.38;0.85;;;20.00;51.80;;;;;;5093421;28;20044;-68
2023/04/27 05:51:46;;;;;;;1.60;1.10;;;20.00;51.80;;;;;;5093435;28;20076;-68
2023/04/27 05:54:12;;;;;;;2.05;0.80;;;20.00;51.80;;;;;;5092656;28;20459;-68
2023/04/27 05:56:37;;;;;;;2.22;1.20;;;20.10;51.80;;;;;;5093267;28;20067;-68
2023/04/27 05:59:03;;;;;;;2.28;1.00;;;20.10;51.80;;;;;;5093251;28;20055;-68
2023/04/27 06:01:29;;;;;;;1.92;0.95;;;20.10;51.80;;;;;;5092656;28;20399;-68
2023/04/27 06:03:54;;;;;;;1.70;0.93;;;20.10;51.70;;;;;;5093283;28;20127;-68
2023/04/27 06:06:20;;;;;;;2.05;0.98;;;20.10;51.70;;;;;;5092182;28;20059;-68
2023/04/27 06:08:45;;;;;;;2.38;1.20;;;20.10;51.70;;;;;;5092404;28;20055;-69
2023/04/27 06:11:11;;;;;;;2.15;1.00;;;20.10;51.60;;;;;;5091699;28;20048;-68
2023/04/27 06:13:37;;;;;;;2.38;1.58;;;20.10;51.60;;;;;;5093081;28;20119;-67
2023/04/27 06:16:02;;;;;;;3.17;1.00;;;20.10;51.60;;;;;;5092089;28;20040;-66
2023/04/27 06:18:28;;;;;;;3.28;0.90;;;20.20;51.60;;;;;;5093468;28;20493;-69
2023/04/27 06:20:58;;;;;;;4.70;1.02;;;20.20;51.60;;;;;;5091712;28;20446;-66
2023/04/27 06:23:24;;;;;;;3.47;1.00;;;20.20;51.70;;;;;;5092326;28;20379;-66
2023/04/27 06:25:50;;;;;;;2.90;1.20;;;20.20;51.60;;;;;;5091740;28;20483;-65
2023/04/27 06:28:15;;;;;;;5.05;1.27;;;20.20;52.30;;;;;;5092726;28;20047;-66
2023/04/27 06:30:41;;;;;;;3.83;1.02;;;20.20;51.60;;;;;;5092319;28;20094;-66
2023/04/27 06:33:07;;;;;;;2.15;0.82;;;20.20;51.60;;;;;;5091613;28;20048;-66
2023/04/27 06:35:33;;;;;;;2.33;0.80;;;20.30;51.70;;;;;;5091714;28;20097;-66
2023/04/27 06:37:58;;;;;;;2.65;1.10;;;20.30;51.70;;;;;;5091996;28;20047;-66
2023/04/27 06:40:25;;;;;;;3.53;1.00;;;20.30;51.70;;;;;;5092868;28;20046;-66
2023/04/27 06:42:51;;;;;;;3.13;1.13;;;20.30;51.80;;;;;;5092920;28;20044;-65
2023/04/27 06:45:16;;;;;;;2.45;1.02;;;20.30;51.80;;;;;;5093956;28;20064;-66
2023/04/27 06:47:42;;;;;;;10.07;1.40;;;20.30;51.90;;;;;;5098528;28;20086;-66
2023/04/27 06:50:08;;;;;;;3.05;1.33;;;20.30;51.90;;;;;;5096907;28;20122;-66
2023/04/27 06:52:34;;;;;;;3.08;1.15;;;20.30;52.10;;;;;;5091114;28;20083;-66
2023/04/27 06:54:59;;;;;;;11.85;1.40;;;20.40;52.20;;;;;;5097544;28;20082;-66
2023/04/27 06:57:25;;;;;;;4.43;1.35;;;20.40;52.30;;;;;;5096102;28;20391;-65
2023/04/27 06:59:50;;;;;;;3.38;1.25;;;20.40;52.40;;;;;;5092659;28;20977;-68
2023/04/27 07:02:16;;;;;;;2.05;1.02;;;20.40;52.30;;;;;;5090550;28;20044;-66
2023/04/27 07:04:42;;;;;;;4.65;1.50;;;20.40;52.40;;;;;;5097544;28;20032;-66
2023/04/27 07:07:07;;;;;;;3.70;1.20;;;20.40;52.40;;;;;;5097935;28;20047;-66
2023/04/27 07:09:33;;;;;;;5.05;1.38;;;20.40;52.20;;;;;;5096607;28;20040;-65
2023/04/27 07:12:00;;;;;;;2.92;1.20;;;20.40;52.20;;;;;;5097574;28;20639;-66
2023/04/27 07:14:26;;;;;;;2.25;1.10;;;20.40;52.10;;;;;;5090090;28;20041;-66
2023/04/27 07:16:51;;;;;;;3.40;0.98;;;20.40;52.00;;;;;;5097822;28;20043;-66
2023/04/27 07:19:17;;;;;;;3.28;1.20;;;20.40;51.90;;;;;;5095384;28;20040;-66
2023/04/27 07:21:42;;;;;;;1.80;1.10;;;20.40;51.80;;;;;;5097512;28;20051;-66
2023/04/27 07:24:08;;;;;;;3.75;1.35;;;20.40;51.70;;;;;;5097730;28;20201;-67
2023/04/27 07:26:33;;;;;;;4.25;1.30;;;20.40;51.70;;;;;;5097872;28;20043;-67
2023/04/27 07:28:59;;;;;;;1.95;0.90;;;20.40;51.50;;;;;;5096564;28;20487;-67
2023/04/27 07:31:26;;;;;;;3.78;1.00;;;20.40;51.50;;;;;;5095980;28;20072;-66
2023/04/27 07:33:52;;;;;;;2.28;1.10;;;20.40;51.40;;;;;;5098016;28;20044;-65
2023/04/27 07:36:18;;;;;;;1.65;1.02;;;20.50;51.40;;;;;;5098354;28;20046;-66
2023/04/27 07:38:44;;;;;;;2.72;1.25;;;20.40;51.30;;;;;;5098220;28;20036;-66
2023/04/27 07:41:10;;;;;;;1.73;1.10;;;20.50;51.20;;;;;;5097544;28;20043;-66
2023/04/27 07:43:35;;;;;;;2.13;1.00;;;20.50;51.30;;;;;;5098805;28;20092;-66
2023/04/27 07:46:02;;;;;;;3.58;1.10;;;20.50;51.20;;;;;;5098248;28;20040;-66
2023/04/27 07:48:27;;;;;;;3.60;1.30;;;20.50;51.10;;;;;;5097346;28;20036;-66
2023/04/27 07:50:53;;;;;;;2.30;1.00;;;20.50;51.10;;;;;;5097444;28;20042;-66
2023/04/27 07:53:19;;;;;;;3.08;1.20;;;20.50;51.00;;;;;;5097341;28;20536;-66
2023/04/27 07:55:45;;;;;;;4.75;1.25;;;20.50;50.90;;;;;;5099678;28;20051;-67
2023/04/27 07:58:10;;;;;;;2.67;1.02;;;20.50;50.90;;;;;;5094386;28;20047;-67
2023/04/27 08:00:36;;;;;;;4.28;1.13;;;20.50;50.90;;;;;;5096010;28;20044;-67
2023/04/27 08:03:01;;;;;;;2.55;1.00;;;20.50;50.80;;;;;;5094404;28;20059;-67
2023/04/27 08:05:27;;;;;;;2.20;0.98;;;20.50;50.70;;;;;;5095186;28;20036;-67
2023/04/27 08:07:53;;;;;;;4.60;1.00;;;20.50;50.70;;;;;;5090115;28;20387;-68
2023/04/27 08:10:18;;;;;;;2.72;1.10;;;20.50;50.60;;;;;;5087111;28;20032;-66
2023/04/27 08:12:44;;;;;;;3.25;1.15;;;20.50;50.50;;;;;;5081951;28;20483;-67
2023/04/27 08:15:10;;;;;;;2.13;0.85;;;20.60;50.50;;;;;;5086864;28;20081;-66
2023/04/27 08:17:36;;;;;;;2.95;1.15;;;20.60;50.40;;;;;;5087240;28;20041;-66
2023/04/27 08:20:02;;;;;;;2.55;1.08;;;20.60;50.40;;;;;;5088415;28;20048;-66
2023/04/27 08:22:27;;;;;;;2.47;1.20;;;20.60;50.30;;;;;;5093668;28;20552;-66
2023/04/27 08:24:53;;;;;;;2.63;1.10;;;20.60;50.10;;;;;;5094630;28;20056;-66
2023/04/27 08:27:18;;;;;;;5.35;1.10;;;20.60;49.80;;;;;;5094858;28;20454;-66
2023/04/27 08:29:46;;;;;;;2.53;0.82;;;20.60;49.70;;;;;;5094211;28;20093;-65
2023/04/27 08:32:12;;;;;;;1.92;1.20;;;20.60;49.50;;;;;;5094678;28;20044;-65
2023/04/27 08:34:37;;;;;;;3.25;1.00;;;20.60;49.50;;;;;;5094526;28;20036;-64
2023/04/27 08:37:03;;;;;;;4.07;1.10;;;20.60;49.60;;;;;;5093645;28;20473;-66
2023/04/27 08:39:28;;;;;;;3.30;0.95;;;20.70;49.70;;;;;;5094776;28;20039;-66
2023/04/27 08:41:54;;;;;;;3.72;1.00;;;20.70;49.80;;;;;;5094730;28;20035;-65
2023/04/27 08:44:20;;;;;;;3.10;1.00;;;20.70;49.90;;;;;;5093842;28;20398;-64
2023/04/27 08:46:45;;;;;;;2.60;0.80;;;20.70;50.30;;;;;;5091522;28;20048;-63
2023/04/27 08:49:11;;;;;;;1.70;0.90;;;20.70;50.30;;;;;;5081598;28;20053;-64
2023/04/27 08:51:36;;;;;;;2.92;0.93;;;20.70;50.30;;;;;;5085858;28;20070;-64
2023/04/27 08:54:02;;;;;;;3.08;1.10;;;20.70;50.40;;;;;;5084891;28;20040;-64
2023/04/27 08:56:28;;;;;;;3.45;1.00;;;20.70;50.60;;;;;;5083674;28;20070;-64
2023/04/27 08:58:55;;;;;;;3.00;1.23;;;20.80;50.70;;;;;;5081728;28;20055;-65
2023/04/27 09:01:21;;;;;;;3.72;1.13;;;20.80;50.90;;;;;;5081327;28;20055;-65
2023/04/27 09:03:46;;;;;;;2.78;1.15;;;20.80;51.00;;;;;;5082059;28;20055;-64
2023/04/27 09:06:13;;;;;;;3.80;0.98;;;20.80;51.10;;;;;;5083707;28;20063;-65
2023/04/27 09:08:45;;;;;;;2.38;0.90;;;20.80;51.20;;;;;;5084452;28;20047;-65
2023/04/27 09:11:14;;;;;;;3.25;0.93;;;20.80;51.40;;;;;;5081274;28;20047;-65
2023/04/27 09:13:41;;;;;;;2.75;0.82;;;20.90;51.40;;;;;;5082661;28;20146;-66
2023/04/27 09:16:06;;;;;;;3.05;1.10;;;20.90;51.40;;;;;;5080471;28;20044;-66
2023/04/27 09:18:35;;;;;;;2.97;0.80;;;20.90;51.30;;;;;;5082757;28;20151;-65
2023/04/27 09:21:03;;;;;;;3.15;0.82;;;20.90;51.20;;;;;;5083069;28;20048;-65
2023/04/27 09:23:37;;;;;;;4.43;1.10;;;20.90;51.00;;;;;;5079259;28;20129;-66
2023/04/27 09:26:06;;;;;;;2.38;1.00;;;20.90;51.30;;;;;;5081999;28;20495;-67
2023/04/27 09:28:33;;;;;;;1.98;0.90;;;20.90;51.50;;;;;;5083268;28;20029;-66
2023/04/27 09:30:59;;;;;;;2.15;0.80;;;20.90;51.70;;;;;;5080727;28;20040;-66
2023/04/27 09:33:28;;;;;;;1.75;0.90;;;20.90;51.70;;;;;;5081570;28;20491;-65
2023/04/27 09:35:55;;;;;;;1.83;0.88;;;20.90;51.80;;;;;;5082976;28;20107;-66
2023/04/27 09:38:21;;;;;;;3.17;0.82;;;20.90;51.90;;;;;;5080847;28;20045;-65
2023/04/27 09:40:48;;;;;;;2.97;1.00;;;20.90;51.90;;;;;;5083762;28;20407;-65
2023/04/27 09:43:13;;;;;;;2.20;0.98;;;20.90;52.00;;;;;;5082414;28;20046;-67
2023/04/27 09:45:39;;;;;;;2.10;0.77;;;21.00;52.10;;;;;;5083761;28;20036;-66
2023/04/27 09:48:05;;;;;;;2.35;0.80;;;20.90;52.00;;;;;;5089191;28;20434;-66
2023/04/27 09:50:33;;;;;;;2.85;1.00;;;21.00;52.10;;;;;;5080130;28;20043;-65
2023/04/27 09:52:59;;;;;;;2.30;0.80;;;21.00;52.10;;;;;;5082658;28;20035;-67
2023/04/27 09:55:36;;;;;;;2.85;0.85;;;21.00;52.10;;;;;;5079717;28;20040;-65
2023/04/27 09:58:13;;;;;;;1.85;0.88;;;21.00;52.20;;;;;;5089111;28;20040;-65
2023/04/27 10:01:09;;;;;;;3.60;1.00;;;21.00;52.20;;;;;;5078468;28;20059;-66
2023/04/27 10:04:02;;;;;;;4.35;1.05;;;21.00;52.40;;;;;;5090619;28;20089;-66
2023/04/27 10:06:37;;;;;;;3.05;1.08;;;21.00;52.40;;;;;;5082370;28;20517;-67
2023/04/27 10:09:05;;;;;;;2.13;0.88;;;21.00;52.30;;;;;;5081303;28;20051;-66
2023/04/27 10:11:42;;;;;;;2.10;0.90;;;21.00;52.30;;;;;;5082375;28;20068;-68
2023/04/27 10:14:09;;;;;;;3.75;1.00;;;21.00;52.40;;;;;;5090785;28;20122;-66
2023/04/27 10:16:42;;;;;;;1.70;0.70;;;21.00;52.30;;;;;;5092560;28;20042;-66
2023/04/27 10:19:08;;;;;;;2.10;0.85;;;21.00;52.20;;;;;;5092521;28;20052;-66
2023/04/27 10:21:34;;;;;;;3.13;0.98;;;21.00;52.10;;;;;;5090793;28;20043;-66
2023/04/27 10:24:08;;;;;;;1.10;0.80;;;21.00;52.10;;;;;;5090982;28;20444;-66
2023/04/27 10:26:35;;;;;;;1.15;0.88;;;21.00;52.20;;;;;;5092785;28;20055;-66
2023/04/27 10:29:06;;;;;;;2.83;0.80;;;21.00;52.20;;;;;;5091855;28;20042;-66
2023/04/27 10:31:32;;;;;;;2.63;0.90;;;21.00;52.10;;;;;;5092498;28;20096;-66
2023/04/27 10:34:09;;;;;;;2.53;0.90;;;21.00;52.20;;;;;;5092729;28;20040;-66
2023/04/27 10:36:39;;;;;;;1.43;0.90;;;21.00;52.20;;;;;;5111349;28;20483;-67
2023/04/27 10:39:21;;;;;;;2.30;1.10;;;21.00;52.30;;;;;;5092068;28;20476;-67
2023/04/27 10:41:54;;;;;;;2.80;1.20;;;21.00;52.30;;;;;;5092674;28;20052;-66
2023/04/27 10:44:26;;;;;;;2.95;1.20;;;21.00;52.40;;;;;;5091973;28;20032;-66
2023/04/27 10:46:55;;;;;;;4.82;1.67;;;21.00;52.40;;;;;;5081234;28;20063;-67
2023/04/27 10:49:21;;;;;;;4.88;1.30;;;21.00;52.50;;;;;;5082355;28;20088;-68
2023/04/27 10:51:49;;;;;;;4.47;2.03;;;20.90;52.50;;;;;;5082056;28;20040;-67
2023/04/27 10:54:14;;;;;;;4.68;1.98;;;20.90;52.60;;;;;;5078937;28;20087;-67
2023/04/27 10:56:40;;;;;;;8.90;2.33;;;20.90;52.60;;;;;;5080963;28;20074;-66
2023/04/27 10:59:07;;;;;;;7.75;2.60;;;20.90;52.70;;;;;;5081041;28;20040;-66
2023/04/27 11:01:32;;;;;;;6.95;2.45;;;20.90;52.80;;;;;;5082222;28;20048;-66
2023/04/27 11:03:59;;;;;;;5.55;2.20;;;20.90;52.80;;;;;;5079381;28;20089;-67
2023/04/27 11:06:24;;;;;;;6.00;2.20;;;20.90;52.80;;;;;;5080650;28;20044;-66
2023/04/27 11:08:50;;;;;;;5.93;2.28;;;20.90;52.80;;;;;;5082639;28;20036;-65
2023/04/27 11:11:18;;;;;;;6.88;2.28;;;20.90;52.80;;;;;;5077377;28;20066;-65
2023/04/27 11:13:47;;;;;;;5.20;2.47;;;21.00;52.80;;;;;;5083844;28;20040;-65
2023/04/27 11:16:12;;;;;;;8.15;2.20;;;21.00;52.70;;;;;;5081001;28;20040;-65
2023/04/27 11:18:38;;;;;;;4.63;1.83;;;21.00;52.70;;;;;;5086792;28;20063;-65
2023/04/27 11:21:07;;;;;;;7.75;1.70;;;21.00;52.60;;;;;;5079518;28;20093;-64
2023/04/27 11:23:37;;;;;;;3.95;1.80;;;21.00;52.50;;;;;;5079560;28;20048;-65
2023/04/27 11:26:25;;;;;;;5.32;1.73;;;21.00;52.60;;;;;;5080626;28;20040;-65
2023/04/27 11:29:00;;;;;;;5.32;2.20;;;21.00;52.50;;;;;;5081298;28;20127;-65
2023/04/27 11:31:27;;;;;;;6.18;2.00;;;21.00;52.50;;;;;;5082234;28;20111;-66
2023/04/27 11:33:53;;;;;;;5.63;2.00;;;21.00;52.50;;;;;;5083471;28;20044;-65
2023/04/27 11:36:20;;;;;;;5.38;1.90;;;21.00;52.50;;;;;;5087475;28;20044;-64
2023/04/27 11:38:46;;;;;;;7.85;2.20;;;21.00;52.50;;;;;;5084971;28;20393;-65
2023/04/27 11:41:11;;;;;;;6.80;1.88;;;21.00;53.20;;;;;;5085199;28;20569;-65
2023/04/27 11:43:42;;;;;;;5.13;1.92;;;21.00;52.50;;;;;;5084654;28;20449;-64
2023/04/27 11:46:09;;;;;;;6.22;1.98;;;21.00;52.50;;;;;;5081758;28;20059;-65
2023/04/27 11:48:36;;;;;;;7.10;1.83;;;21.00;52.50;;;;;;5089776;28;20073;-65
2023/04/27 11:51:02;;;;;;;3.38;1.75;;;21.00;52.50;;;;;;5081576;28;20029;-65
2023/04/27 11:53:38;;;;;;;5.22;1.67;;;21.00;52.40;;;;;;5086012;28;20044;-65
2023/04/27 11:56:05;;;;;;;5.60;1.73;;;21.00;52.40;;;;;;5080712;28;20699;-65
2023/04/27 11:58:34;;;;;;;5.10;1.85;;;21.00;52.40;;;;;;5087258;28;20047;-65
2023/04/27 12:01:00;;;;;;;4.85;1.83;;;21.00;52.40;;;;;;5083142;28;20051;-65
2023/04/27 12:03:27;;;;;;;5.38;1.88;;;21.00;52.40;;;;;;5084908;28;20040;-65
2023/04/27 12:05:53;;;;;;;4.50;1.90;;;21.00;52.40;;;;;;5085220;28;20046;-65
2023/04/27 12:08:19;;;;;;;5.43;1.63;;;20.90;52.30;;;;;;5082021;28;20043;-65
2023/04/27 12:10:44;;;;;;;5.97;1.50;;;20.90;52.30;;;;;;5082602;28;20060;-65
2023/04/27 12:13:11;;;;;;;5.18;1.67;;;20.90;52.30;;;;;;5091162;28;20067;-65
2023/04/27 12:15:40;;;;;;;4.30;1.77;;;20.90;52.30;;;;;;5080410;28;20047;-65
2023/04/27 12:18:05;;;;;;;4.28;1.80;;;20.90;52.30;;;;;;5088038;28;20392;-65
2023/04/27 12:20:31;;;;;;;4.50;1.40;;;20.90;52.30;;;;;;5082067;28;20537;-65
2023/04/27 12:22:57;;;;;;;3.30;1.52;;;20.90;52.30;;;;;;5088248;28;20052;-65
2023/04/27 12:25:23;;;;;;;3.50;1.80;;;20.90;52.30;;;;;;5081784;28;20412;-65
2023/04/27 12:27:49;;;;;;;3.30;1.50;;;20.90;52.30;;;;;;5085001;28;20093;-65
2023/04/27 12:30:14;;;;;;;3.53;1.80;;;20.90;52.30;;;;;;5082369;28;20052;-65
2023/04/27 12:32:40;;;;;;;4.97;1.50;;;20.90;52.30;;;;;;5082670;28;20044;-65
2023/04/27 12:35:11;;;;;;;4.63;1.60;;;20.90;52.30;;;;;;5083140;28;20045;-65
2023/04/27 12:37:37;;;;;;;4.97;1.42;;;20.90;52.30;;;;;;5082169;28;20028;-65
2023/04/27 12:40:07;;;;;;;8.85;2.08;;;20.90;52.30;;;;;;5077019;28;20047;-65
2023/04/27 12:42:33;;;;;;;5.43;1.63;;;20.90;52.40;;;;;;5081336;28;20051;-64
2023/04/27 12:44:59;;;;;;;3.95;1.58;;;20.80;52.20;;;;;;5084982;28;20126;-65